createdAt,value
2019-01-29T00:00:03.491Z,99.90
2019-01-29T00:04:49.306Z,99.90
2019-01-29T00:09:35.062Z,99.90
2019-01-29T00:14:20.972Z,99.90
2019-01-29T00:19:07.018Z,99.90
2019-01-29T00:23:52.858Z,99.90
2019-01-29T00:28:38.587Z,99.90
2019-01-29T00:33:24.570Z,99.90
2019-01-29T00:38:10.318Z,99.90
2019-01-29T00:42:56.166Z,99.90
2019-01-29T00:47:42.160Z,99.90
2019-01-29T00:52:27.913Z,99.90
2019-01-29T00:57:13.682Z,99.90
2019-01-29T01:01:59.672Z,99.90
2019-01-29T01:06:45.487Z,99.90
2019-01-29T01:11:31.397Z,99.90
2019-01-29T01:16:17.226Z,99.90
2019-01-29T01:21:02.994Z,99.90
2019-01-29T01:25:48.748Z,99.90
2019-01-29T01:30:34.525Z,99.90
2019-01-29T01:35:20.439Z,99.90
2019-01-29T01:40:09.146Z,99.90
2019-01-29T01:44:54.889Z,99.90
2019-01-29T01:49:41.672Z,99.90
2019-01-29T01:54:27.395Z,99.90
2019-01-29T01:59:13.309Z,99.90
2019-01-29T02:03:59.053Z,99.90
2019-01-29T02:08:44.876Z,99.90
2019-01-29T02:13:30.767Z,99.90
2019-01-29T02:18:16.666Z,99.90
2019-01-29T02:23:07.801Z,99.90
2019-01-29T02:27:49.756Z,99.90
2019-01-29T02:32:35.534Z,99.90
2019-01-29T02:37:22.169Z,99.90
2019-01-29T02:42:08.187Z,99.90
2019-01-29T02:46:54.046Z,99.90
2019-01-29T02:51:39.857Z,99.90
2019-01-29T02:56:25.593Z,99.90
2019-01-29T03:01:11.705Z,99.90
2019-01-29T03:05:57.681Z,99.90
2019-01-29T03:10:43.709Z,99.90
2019-01-29T03:15:31.636Z,99.90
2019-01-29T03:20:18.151Z,99.90
2019-01-29T03:25:04.665Z,99.90
2019-01-29T03:29:50.505Z,99.90
2019-01-29T03:34:36.260Z,99.90
2019-01-29T03:39:22.056Z,99.90
2019-01-29T03:44:07.878Z,99.90
2019-01-29T03:48:53.637Z,99.90
2019-01-29T03:53:39.315Z,99.90
2019-01-29T03:58:25.196Z,99.90
2019-01-29T04:03:10.994Z,99.90
2019-01-29T04:07:56.747Z,99.90
2019-01-29T04:12:42.515Z,99.90
2019-01-29T04:17:28.397Z,99.90
2019-01-29T04:22:14.236Z,99.90
2019-01-29T04:27:00.007Z,99.90
2019-01-29T04:31:45.718Z,99.90
2019-01-29T04:36:31.480Z,99.90
2019-01-29T04:41:17.225Z,99.90
2019-01-29T04:46:21.885Z,99.90
2019-01-29T04:51:07.657Z,99.90
2019-01-29T04:55:53.485Z,99.90
2019-01-29T05:00:39.318Z,99.90
2019-01-29T05:05:25.310Z,99.90
2019-01-29T05:10:12.367Z,99.90
2019-01-29T05:14:58.418Z,99.90
2019-01-29T05:19:44.245Z,99.90
2019-01-29T05:24:30.098Z,99.90
2019-01-29T05:29:15.984Z,99.90
2019-01-29T05:34:01.787Z,99.90
2019-01-29T05:38:47.545Z,99.90
2019-01-29T05:43:33.351Z,99.90
2019-01-29T05:48:19.278Z,99.90
2019-01-29T05:53:05.667Z,99.90
2019-01-29T05:57:51.748Z,99.90
2019-01-29T06:02:37.647Z,99.90
2019-01-29T06:07:23.461Z,99.90
2019-01-29T06:12:09.471Z,99.90
2019-01-29T06:16:55.394Z,99.90
2019-01-29T06:21:41.290Z,99.90
2019-01-29T06:26:27.281Z,99.90
2019-01-29T06:31:13.143Z,99.90
2019-01-29T06:35:58.854Z,99.90
2019-01-29T06:40:44.624Z,99.90
2019-01-29T06:45:30.439Z,99.90
2019-01-29T06:50:18.608Z,99.90
2019-01-29T06:55:04.899Z,99.90
2019-01-29T06:59:50.860Z,99.90
2019-01-29T07:04:36.661Z,99.90
2019-01-29T07:09:22.666Z,99.90
2019-01-29T07:14:08.711Z,99.90
2019-01-29T07:19:02.234Z,99.90
2019-01-29T07:23:48.214Z,99.90
2019-01-29T07:28:34.025Z,99.90
2019-01-29T07:33:19.741Z,99.90
2019-01-29T07:38:05.897Z,99.90
2019-01-29T07:42:51.647Z,99.90
2019-01-29T07:47:37.448Z,99.90
2019-01-29T07:52:23.557Z,99.90
2019-01-29T07:57:09.331Z,99.90
2019-01-29T08:01:55.126Z,99.90
2019-01-29T08:06:41.107Z,99.90
2019-01-29T08:11:26.767Z,99.90
2019-01-29T08:16:12.696Z,99.90
2019-01-29T08:20:58.467Z,99.90
2019-01-29T08:25:47.870Z,99.90
2019-01-29T08:30:31.558Z,99.90
2019-01-29T08:35:17.620Z,99.90
2019-01-29T08:40:03.437Z,99.90
2019-01-29T08:44:49.216Z,99.90
2019-01-29T08:49:35.120Z,99.90
2019-01-29T08:54:20.886Z,99.90
2019-01-29T08:59:06.697Z,99.90
2019-01-29T09:03:52.458Z,99.90
2019-01-29T09:08:38.310Z,99.90
2019-01-29T09:13:24.073Z,99.90
2019-01-29T09:18:10.097Z,99.90
2019-01-29T09:22:55.865Z,99.90
2019-01-29T09:27:41.568Z,99.90
2019-01-29T09:32:27.338Z,99.90
2019-01-29T09:37:13.239Z,99.90
2019-01-29T09:41:59.006Z,99.90
2019-01-29T09:46:44.832Z,99.90
2019-01-29T09:51:30.775Z,99.90
2019-01-29T09:56:16.503Z,99.90
2019-01-29T10:01:02.375Z,99.90
2019-01-29T10:05:48.343Z,99.90
2019-01-29T10:10:34.150Z,99.90
2019-01-29T10:15:28.368Z,99.90
2019-01-29T10:20:14.361Z,99.90
2019-01-29T10:25:02.150Z,99.90
2019-01-29T10:29:47.654Z,99.90
2019-01-29T10:34:33.523Z,99.90
2019-01-29T10:39:19.675Z,99.90
2019-01-29T10:44:06.209Z,99.90
2019-01-29T10:48:51.917Z,99.90
2019-01-29T10:53:37.732Z,99.90
2019-01-29T10:58:23.730Z,99.90
2019-01-29T11:03:11.208Z,99.90
2019-01-29T11:07:57.061Z,99.90
2019-01-29T11:12:43.026Z,99.90
2019-01-29T11:17:28.889Z,99.90
2019-01-29T11:22:14.833Z,99.90
2019-01-29T11:27:00.658Z,91.20
2019-01-29T11:31:46.575Z,90.70
2019-01-29T11:36:32.346Z,87.10
2019-01-29T11:41:19.795Z,90.30
2019-01-29T11:46:06.233Z,75.90
2019-01-29T11:50:52.144Z,70.80
2019-01-29T11:55:38.122Z,61.10
2019-01-29T12:00:45.759Z,63.70
2019-01-29T12:05:32.039Z,56.20
2019-01-29T12:10:18.154Z,53.30
2019-01-29T12:15:04.440Z,53.90
2019-01-29T12:19:50.265Z,54.70
2019-01-29T12:24:36.317Z,54.70
2019-01-29T12:29:22.484Z,53.80
2019-01-29T12:34:08.367Z,48.70
2019-01-29T12:38:54.105Z,46.60
2019-01-29T12:43:40.106Z,44.40
2019-01-29T12:48:25.889Z,41.90
2019-01-29T12:53:14.802Z,39.60
2019-01-29T12:58:00.849Z,37.60
2019-01-29T13:02:46.905Z,37.50
2019-01-29T13:07:32.688Z,37.10
2019-01-29T13:12:18.956Z,38.20
2019-01-29T13:17:04.852Z,37.10
2019-01-29T13:21:50.882Z,35.80
2019-01-29T13:26:37.934Z,39.00
2019-01-29T13:31:42.845Z,41.70
2019-01-29T13:36:28.825Z,38.80
2019-01-29T13:41:14.859Z,36.20
2019-01-29T13:46:00.827Z,35.90
2019-01-29T13:50:50.334Z,36.00
2019-01-29T13:55:36.285Z,36.40
2019-01-29T14:00:25.567Z,35.20
2019-01-29T14:05:11.947Z,37.10
2019-01-29T14:09:58.003Z,37.00
2019-01-29T14:14:43.955Z,37.40
2019-01-29T14:19:29.948Z,40.00
2019-01-29T14:24:15.869Z,39.90
2019-01-29T14:29:01.844Z,40.10
2019-01-29T14:33:47.565Z,40.00
2019-01-29T14:39:19.512Z,37.50
2019-01-29T14:44:11.655Z,35.80
2019-01-29T14:48:57.392Z,33.80
2019-01-29T14:53:43.258Z,33.50
2019-01-29T14:58:29.110Z,35.40
2019-01-29T15:03:15.061Z,37.20
2019-01-29T15:08:01.603Z,39.50
2019-01-29T15:12:47.540Z,40.20
2019-01-29T15:17:44.131Z,40.80
2019-01-29T15:22:30.381Z,43.70
2019-01-29T15:27:17.205Z,48.10
2019-01-29T15:32:03.173Z,50.90
2019-01-29T15:36:49.149Z,53.90
2019-01-29T15:41:35.191Z,55.80
2019-01-29T15:46:21.145Z,58.50
2019-01-29T15:51:07.255Z,61.50
2019-01-29T15:55:53.196Z,65.60
2019-01-29T16:00:39.819Z,70.20
2019-01-29T16:05:27.327Z,75.40
2019-01-29T16:10:15.774Z,82.20
2019-01-29T16:15:01.856Z,90.30
2019-01-29T16:19:47.707Z,94.00
2019-01-29T16:24:33.527Z,99.30
2019-01-29T16:29:19.902Z,99.90
2019-01-29T16:34:06.136Z,99.90
2019-01-29T16:38:52.416Z,99.90
2019-01-29T16:43:38.517Z,99.90
2019-01-29T16:48:24.906Z,99.90
2019-01-29T16:53:11.064Z,99.90
2019-01-29T16:57:57.324Z,99.90
2019-01-29T17:02:43.441Z,99.90
2019-01-29T17:07:29.309Z,99.90
2019-01-29T17:12:15.251Z,99.90
2019-01-29T17:17:01.091Z,99.90
2019-01-29T17:21:47.032Z,99.90
2019-01-29T17:26:33.483Z,99.90
2019-01-29T17:31:19.560Z,99.90
2019-01-29T17:36:05.786Z,99.90
2019-01-29T17:40:51.804Z,99.90
2019-01-29T17:45:43.196Z,99.90
2019-01-29T17:50:31.275Z,99.90
2019-01-29T17:55:17.469Z,99.90
2019-01-29T18:00:03.837Z,99.90
2019-01-29T18:04:49.935Z,99.90
2019-01-29T18:09:35.870Z,99.90
2019-01-29T18:14:22.026Z,99.90
2019-01-29T18:19:08.404Z,99.90
2019-01-29T18:23:54.272Z,99.90
2019-01-29T18:28:40.287Z,99.90
2019-01-29T18:33:26.473Z,99.90
2019-01-29T18:38:12.370Z,99.90
2019-01-29T18:42:58.368Z,99.90
2019-01-29T18:47:44.414Z,99.90
2019-01-29T18:52:30.348Z,99.90
2019-01-29T18:57:16.236Z,99.90
2019-01-29T19:02:02.103Z,99.90
2019-01-29T19:06:48.130Z,99.90
2019-01-29T19:11:35.042Z,99.90
2019-01-29T19:16:21.119Z,99.90
2019-01-29T19:21:07.497Z,99.90
2019-01-29T19:25:55.551Z,99.90
2019-01-29T19:30:41.542Z,99.90
2019-01-29T19:35:27.929Z,99.90
2019-01-29T19:40:14.592Z,99.90
2019-01-29T19:45:00.760Z,99.90
2019-01-29T19:49:46.859Z,99.90
2019-01-29T19:54:32.927Z,99.90
2019-01-29T19:59:21.830Z,99.90
2019-01-29T20:04:08.008Z,99.90
2019-01-29T20:08:54.211Z,99.90
2019-01-29T20:13:59.225Z,99.90
2019-01-29T20:18:45.123Z,99.90
2019-01-29T20:23:31.134Z,99.90
2019-01-29T20:28:17.203Z,99.90
2019-01-29T20:33:05.240Z,99.90
2019-01-29T20:37:51.278Z,99.90
2019-01-29T20:42:40.352Z,99.90
2019-01-29T20:47:26.340Z,99.90
2019-01-29T20:52:12.443Z,99.90
2019-01-29T20:56:58.286Z,99.90
2019-01-29T21:01:44.573Z,99.90
2019-01-29T21:06:30.706Z,99.90
2019-01-29T21:11:17.585Z,99.90
2019-01-29T21:16:03.722Z,99.90
2019-01-29T21:20:56.853Z,99.90
2019-01-29T21:25:37.264Z,99.90
2019-01-29T21:30:45.947Z,99.90
2019-01-29T21:35:32.142Z,99.90
2019-01-29T21:40:18.516Z,99.90
2019-01-29T21:45:05.080Z,99.90
2019-01-29T21:49:50.950Z,99.90
2019-01-29T21:54:37.148Z,99.90
2019-01-29T21:59:23.181Z,99.90
2019-01-29T22:04:09.178Z,99.90
2019-01-29T22:08:54.943Z,99.90
2019-01-29T22:13:42.018Z,99.90
2019-01-29T22:18:28.192Z,97.20
2019-01-29T22:23:14.284Z,81.50
2019-01-29T22:28:00.283Z,76.50
2019-01-29T22:32:46.144Z,73.80
2019-01-29T22:37:31.826Z,69.90
2019-01-29T22:42:17.934Z,67.20
2019-01-29T22:47:03.860Z,65.00
2019-01-29T22:51:49.774Z,62.30
2019-01-29T22:56:35.671Z,61.60
2019-01-29T23:01:39.914Z,61.30
2019-01-29T23:06:59.725Z,59.90
2019-01-29T23:11:45.519Z,59.10
2019-01-29T23:16:31.329Z,58.70
2019-01-29T23:21:17.273Z,58.20
2019-01-29T23:26:03.104Z,58.20
2019-01-29T23:30:49.080Z,57.10
2019-01-29T23:35:34.914Z,56.30
2019-01-29T23:40:20.824Z,55.20
2019-01-29T23:45:08.451Z,54.00
2019-01-29T23:49:54.421Z,54.80
2019-01-29T23:54:40.165Z,53.30
2019-01-29T23:59:26.040Z,53.30
